Terminal Aerodrome Forecast
Issued by NWS

Home | Current Version | Previous Version | Text Only | Print | Product List | Glossary On
Versions: 1 2 3 4 5 6 7 8 9 10 11 12 13
890
FTUS45 KVEF 112320
TAFEED
TAF
KEED 112320Z 1200/1224 01008KT P6SM FEW250
     FM120300 30005KT P6SM FEW250
     FM121700 02007KT P6SM SKC=

USA.gov is the U.S. government's official web portal to all federal, state and local government web resources and services.